createdAt,value
2022-10-26T00:01:58.070Z,2.3
2022-10-26T00:07:09.175Z,2.1
2022-10-26T00:12:21.311Z,2.2
2022-10-26T00:17:34.413Z,1.8
2022-10-26T00:22:45.696Z,1.5
2022-10-26T00:27:58.459Z,1.6
2022-10-26T00:33:11.343Z,1.2
2022-10-26T00:43:41.485Z,1.7
2022-10-26T00:48:52.474Z,1.7
2022-10-26T00:59:23.938Z,1.6
2022-10-26T01:04:37.378Z,2
2022-10-26T01:09:48.761Z,1.8
2022-10-26T01:15:00.984Z,1.6
2022-10-26T01:20:12.337Z,1.6
2022-10-26T01:30:42.649Z,1.5
2022-10-26T01:35:54.106Z,1.6
2022-10-26T01:41:07.196Z,1.5
2022-10-26T01:57:06.412Z,2
2022-10-26T02:02:18.324Z,1.7
2022-10-26T02:07:27.929Z,2
2022-10-26T02:18:01.471Z,1.3
2022-10-26T02:23:12.406Z,1.4
2022-10-26T02:44:28.876Z,1.3
2022-10-26T02:55:03.398Z,1.6
2022-10-26T03:00:15.642Z,1.5
2022-10-26T03:05:28.763Z,1.8
2022-10-26T03:10:41.787Z,1.7
2022-10-26T03:15:51.330Z,1.6
2022-10-26T03:21:03.440Z,1.7
2022-10-26T03:26:15.889Z,1.3
2022-10-26T03:36:48.520Z,2.3
2022-10-26T03:42:00.914Z,1.6
2022-10-26T03:47:12.266Z,1.3
2022-10-26T03:52:22.447Z,1.1
2022-10-26T03:57:34.501Z,1
2022-10-26T04:02:47.582Z,0.9
2022-10-26T04:13:21.408Z,1.2
2022-10-26T04:18:31.989Z,1.5
2022-10-26T04:23:42.987Z,1.2
2022-10-26T04:28:53.183Z,1.5
2022-10-26T04:34:08.029Z,1.1
2022-10-26T04:44:42.478Z,1.2
2022-10-26T04:49:55.426Z,1.3
2022-10-26T04:55:05.250Z,1.6
2022-10-26T05:00:17.121Z,1.6
2022-10-26T05:05:28.169Z,1.6
2022-10-26T05:10:43.999Z,2.1
2022-10-26T05:15:50.983Z,2.3
2022-10-26T05:21:02.008Z,2
2022-10-26T05:36:57.481Z,2.1
2022-10-26T05:47:30.619Z,2.6
2022-10-26T05:58:05.823Z,1.7
2022-10-26T06:03:15.990Z,1.3
2022-10-26T06:08:27.700Z,1.3
2022-10-26T06:13:37.637Z,1.3
2022-10-26T06:24:11.160Z,1
2022-10-26T06:34:46.477Z,1.1
2022-10-26T06:45:20.298Z,1.4
2022-10-26T07:06:39.754Z,1
2022-10-26T07:17:10.766Z,1.3
2022-10-26T07:22:23.955Z,1.2
2022-10-26T07:27:38.176Z,1.3
2022-10-26T07:32:51.833Z,1
2022-10-26T07:53:55.579Z,1.1
2022-10-26T08:04:28.984Z,1.1
2022-10-26T08:09:40.910Z,1.5
2022-10-26T08:25:37.058Z,1.4
2022-10-26T08:30:48.524Z,1.3
2022-10-26T08:36:01.359Z,1.5
2022-10-26T08:41:12.196Z,1.7
2022-10-26T08:46:24.051Z,1.7
2022-10-26T08:51:34.152Z,1.8
2022-10-26T08:56:51.124Z,1.6
2022-10-26T09:01:58.790Z,1.3
2022-10-26T09:07:10.047Z,1.3
2022-10-26T09:23:05.672Z,1.8
2022-10-26T09:28:17.173Z,1.7
2022-10-26T09:33:30.637Z,2.2
2022-10-26T09:38:42.350Z,1.8
2022-10-26T09:43:55.040Z,2
2022-10-26T09:49:06.994Z,2.1
2022-10-26T09:54:19.071Z,2.4
2022-10-26T09:59:31.141Z,1.9
2022-10-26T10:04:43.336Z,1.9
2022-10-26T10:09:59.446Z,1.6
2022-10-26T10:15:12.108Z,1.9
2022-10-26T10:20:23.713Z,1.7
2022-10-26T10:25:36.263Z,1.5
2022-10-26T10:30:50.874Z,1.5
2022-10-26T10:36:06.783Z,1.4
2022-10-26T10:46:41.551Z,1.4
2022-10-26T10:57:26.642Z,1.6
2022-10-26T11:02:36.458Z,1.7
2022-10-26T11:07:54.060Z,1.4
2022-10-26T11:23:50.431Z,1.4
2022-10-26T11:34:33.565Z,1.3
2022-10-26T11:39:42.626Z,1.1
2022-10-26T11:55:35.185Z,1.7
2022-10-26T12:11:29.492Z,1.7
2022-10-26T12:22:04.130Z,3
2022-10-26T12:27:18.690Z,2.6
2022-10-26T12:43:15.155Z,1.9
2022-10-26T12:48:40.046Z,1.6
2022-10-26T13:04:28.070Z,1.6
2022-10-26T13:09:44.932Z,2.2
2022-10-26T13:14:58.001Z,2
2022-10-26T13:20:10.145Z,2
2022-10-26T13:25:23.012Z,2.1
2022-10-26T13:35:59.961Z,2.2
2022-10-26T13:46:37.816Z,1.9
2022-10-26T13:51:54.165Z,2.2
2022-10-26T13:57:11.247Z,2.4
2022-10-26T14:07:43.468Z,2
2022-10-26T14:23:53.231Z,2.3
2022-10-26T14:29:09.727Z,2.4
2022-10-26T14:34:21.396Z,3.2
2022-10-26T14:45:01.509Z,2.4
2022-10-26T14:50:17.798Z,2.5
2022-10-26T14:55:29.368Z,2.3
2022-10-26T15:11:36.509Z,5.6
2022-10-26T15:16:50.708Z,2.2
2022-10-26T15:21:56.428Z,2.1
2022-10-26T15:37:59.791Z,1.8
2022-10-26T15:53:54.494Z,2.7
2022-10-26T15:59:05.819Z,2.4
2022-10-26T16:04:21.523Z,2.2
2022-10-26T16:20:15.607Z,2.7
2022-10-26T16:31:00.554Z,4.2
2022-10-26T16:36:07.399Z,2.9
2022-10-26T16:41:22.747Z,11.3
2022-10-26T16:46:35.171Z,4.7
2022-10-26T17:02:30.864Z,9.1
2022-10-26T17:07:45.599Z,6
2022-10-26T17:13:27.684Z,6.1
2022-10-26T17:23:54.202Z,6.5
2022-10-26T17:29:04.878Z,7.1
2022-10-26T17:34:21.192Z,4.9
2022-10-26T17:44:56.331Z,6.4
2022-10-26T17:50:07.747Z,7.1
2022-10-26T18:00:38.445Z,5.5
2022-10-26T18:05:51.360Z,6
2022-10-26T18:11:06.409Z,4.6
2022-10-26T18:16:21.532Z,5.7
2022-10-26T18:21:38.099Z,4.9
2022-10-26T18:26:50.386Z,6.6
2022-10-26T18:37:28.036Z,7.7
2022-10-26T18:42:38.670Z,6.8
2022-10-26T18:47:58.405Z,15
2022-10-26T18:53:08.802Z,8.6
2022-10-26T18:58:21.321Z,10.4
2022-10-26T19:03:33.255Z,7.7
2022-10-26T19:08:45.478Z,6.4
2022-10-26T19:13:57.670Z,6.9
2022-10-26T19:19:09.540Z,5.7
2022-10-26T19:24:21.756Z,6.6
2022-10-26T19:29:32.039Z,7.8
2022-10-26T19:45:25.741Z,6.6
2022-10-26T19:50:36.791Z,5.5
2022-10-26T19:55:51.067Z,5.7
2022-10-26T20:11:46.910Z,5.9
2022-10-26T20:16:59.489Z,5.5
2022-10-26T20:22:11.101Z,6
2022-10-26T20:27:23.434Z,6.4
2022-10-26T20:32:35.141Z,6.2
2022-10-26T20:37:47.592Z,5.8
2022-10-26T20:48:18.945Z,6.4
2022-10-26T20:53:29.936Z,6.3
2022-10-26T20:58:45.784Z,5.4
2022-10-26T21:14:44.331Z,5.6
2022-10-26T21:19:51.237Z,4.9
2022-10-26T21:25:07.217Z,5.3
2022-10-26T21:35:45.830Z,4.9
2022-10-26T21:41:06.426Z,5.4
2022-10-26T21:46:07.801Z,4.8
2022-10-26T21:51:19.972Z,5.1
2022-10-26T21:56:31.594Z,4.6
2022-10-26T22:01:46.330Z,4.9
2022-10-26T22:12:18.161Z,5.1
2022-10-26T22:17:30.273Z,4.9
2022-10-26T22:22:41.896Z,4.9
2022-10-26T22:33:15.405Z,4.6
2022-10-26T22:38:25.589Z,5
2022-10-26T22:43:37.584Z,4.6
2022-10-26T22:54:10.973Z,4.4
2022-10-26T22:59:28.478Z,5
2022-10-26T23:04:41.255Z,4.6
2022-10-26T23:09:53.136Z,4
2022-10-26T23:20:30.927Z,4.1
2022-10-26T23:31:09.139Z,4.5
2022-10-26T23:36:16.444Z,4.2
2022-10-26T23:41:29.223Z,4.4
2022-10-26T23:51:59.349Z,4.1
2022-10-26T23:57:11.796Z,3.9
